Pagrindinis puslapis
METAR-TAF:

METAR-TAF

Oro uostai :

Aoba Island, Vanuatu

platuma: 15-18-24S, ilguma: 167-58-02E, Aukštis: 51 m

Dabartinis oras

Ataskaita buvo paskelbta 3 valandos ir 10 minutes, ne 06:00 UTC
Vėjas 7 kt iš Pietryčių
Temperatūra 27°C
Drėgmė 79%
Slėgis 1012 hPa
Matomumas 10 km arba daugiau
Mažai debesys ne aukštis 2000 ft

METAR: NVSG 220600Z 14007KT 9999 FEW020 27/23 Q1012

Laikas: 20:10 (09:10 UTC)

Prognozė

Ataskaita buvo paskelbta 4 valandos ir 10 minutes, ne 05:00 UTC
Prognozė galioja nuo 22 metu 06 UTC su 23 metu 06 UTC
Vėjas 8 kt iš Pietryčių
Matomumas 10 km arba daugiau
Išsisklaidę debesys ne aukštis 2000 ft
Su prošvaistėmis ne aukštis 4000 ft
Tikimybė 40%
tarp IN ir TE UTC
Matomumas: 9000 m
Su prošvaistėmis ne aukštis 1800 ft
lietus,

TAF: NVSG 220500Z 2206/2306 14008KT 9999 SCT020 BKN040 PROB40 INTER 2206/2212 9000 SHRA BKN018

Orai ataskaitas ir orų prognozės (METAR, TAF).

turimą stotys yra geltonos ir raudonos taškus žemėlapyje.

Perkelti pele per norėdami pamatyti stoties vardą.

Tada spustelėkite, norėdami matyti oro stebėjimo ir prognozės.

Norėdami pakeisti žemėlapį: spustelėkite ant žalios mygtukų su juodo kryžiaus žemyn,; žalią mygtuką su brūkšneliu, jei norite nutolinti; arba žalių rodyklių gretimoms žemėlapius.


METAR-TAF: